Terminal Aerodrome Forecast
Issued by NWS

Home | Current Version | Previous Version | Text Only | Print | Product List | Glossary On
Versions: 1 2 3 4 5 6 7 8 9 10 11 12 13 14 15 16 17
230
FTUS43 KEAX 221900 AAA
TAFMKC
TAF AMD
KMKC 221940Z 2220/2318 15007KT P6SM OVC120
     FM222300 10005KT P6SM BKN070
     FM231500 14007KT P6SM VCSH OVC035=

USA.gov is the U.S. government's official web portal to all federal, state and local government web resources and services.